Archival Weather

Norman Y Mineta San Jose Intl

San Jose, California (KSJC)

Report from: Wednesday, April 3, 2024 6:53 PM PDT
Current time: Tuesday, May 21, 2024 9:48 AM PDT

Current weather – Weather history – Daily summaries
Weather forecast

Temperature13.9°C (57.0°F)
Dew point8.3°C (46.9°F)
Winds 17 kts (8.7 m/s, 19.6 mph) Northwest (320°)
Visibility10 mi. (16.1 km)
Clouds Ceiling: Broken clouds 2,300 ft. (701 m)
Overcast 4,000 ft. (1,219 m)
Altimeter30.05 in.Hg (1018 mB)
Relative humidity69 %
Density altitude-110 ft. (-34 m)
Sea-level pressure101.7 kPa (1017 mB, 30.04 in.Hg)
Remarks Automated weather observing station with precipitation discriminator
Flight conditions Marginal Visual Meteorological Conditions
Raw dataKSJC 040153Z 32017KT 10SM BKN023 OVC040 14/08 A3005 RMK AO2 SLP173 T01390083
An error has occurred. This application may no longer respond until reloaded. Reload 🗙